Time;durP1;ratioP1;P1;durP2;ratioP2;P2;SDS_P1;SDS_P2;PMS_P1;PMS_P2;Temp;Humidity;BMP_temperature;BMP_pressure;BME280_temperature;BME280_humidity;BME280_pressure;Samples;Min_cycle;Max_cycle;Signal;HPM_P1;HPM_P2
2022/03/14 00:00:29;;;;;;;20.58;8.70;;;;;;;0.69;33.55;99158.31;4410002;32;20104;-75
2022/03/14 00:02:57;;;;;;;23.10;9.65;;;;;;;1.32;33.02;99165.06;4410291;32;20078;-76
2022/03/14 00:05:31;;;;;;;23.77;10.10;;;;;;;1.63;32.41;99158.62;4409971;32;20134;-75
2022/03/14 00:08:01;;;;;;;24.45;9.63;;;;;;;1.62;32.60;99167.12;4410314;32;20746;-75
2022/03/14 00:10:28;;;;;;;24.35;10.38;;;;;;;1.23;33.50;99156.47;4409674;32;20156;-76
2022/03/14 00:12:58;;;;;;;21.48;9.57;;;;;;;1.25;33.76;99165.81;4410151;32;20148;-76
2022/03/14 00:15:30;;;;;;;23.55;10.48;;;;;;;0.82;35.02;99165.25;4410243;32;20169;-75
2022/03/14 00:17:59;;;;;;;27.35;11.38;;;;;;;0.96;34.54;99174.75;4409303;32;20149;-75
2022/03/14 00:20:26;;;;;;;23.27;10.43;;;;;;;0.50;35.02;99172.41;4409935;32;20157;-75
2022/03/14 00:22:53;;;;;;;21.90;10.52;;;;;;;0.85;34.69;99170.41;4409962;32;20082;-75
2022/03/14 00:25:20;;;;;;;24.02;10.25;;;;;;;0.96;34.86;99167.12;4409687;32;20523;-75
2022/03/14 00:27:47;;;;;;;24.90;11.20;;;;;;;1.21;34.87;99174.25;4410128;32;20086;-75
2022/03/14 00:30:20;;;;;;;26.30;11.10;;;;;;;1.43;34.38;99168.59;4409966;32;20448;-75
2022/03/14 00:32:47;;;;;;;26.58;11.23;;;;;;;1.39;34.19;99173.62;4409656;32;20086;-75
2022/03/14 00:35:14;;;;;;;;;;;;;;;1.49;34.06;99159.31;4410369;32;20502;-75
2022/03/14 00:37:43;;;;;;;26.10;9.63;;;;;;;1.02;34.63;99168.06;4410166;32;19995;-75
2022/03/14 00:40:10;;;;;;;27.35;9.88;;;;;;;1.40;33.52;99167.72;4409507;32;20090;-75
2022/03/14 00:42:39;;;;;;;24.17;9.95;;;;;;;1.12;34.08;99175.00;4409926;32;20107;-75
2022/03/14 00:45:07;;;;;;;22.37;9.85;;;;;;;1.40;33.74;99170.25;4408835;32;20167;-75
2022/03/14 00:47:34;;;;;;;25.08;9.88;;;;;;;1.40;34.03;99173.66;4409873;32;20138;-75
2022/03/14 00:50:01;;;;;;;;;;;;;;;1.34;33.91;99178.66;4409915;32;20104;-75
2022/03/14 00:52:28;;;;;;;20.17;9.63;;;;;;;0.49;35.40;99180.00;4409686;32;20305;-75
2022/03/14 00:54:55;;;;;;;;;;;;;;;0.24;35.52;99174.56;4410210;32;20102;-75
2022/03/14 00:57:22;;;;;;;26.23;11.00;;;;;;;0.70;34.93;99176.94;4409853;32;19977;-75
2022/03/14 00:59:50;;;;;;;25.80;11.00;;;;;;;0.84;34.82;99173.75;4409222;32;20094;-75
2022/03/14 01:02:17;;;;;;;30.45;11.95;;;;;;;-0.27;37.39;99168.56;4408626;32;20122;-75
2022/03/14 01:04:44;;;;;;;26.55;11.10;;;;;;;0.14;36.89;99170.16;4409757;32;20089;-76
2022/03/14 01:07:10;;;;;;;;;;;;;;;0.79;35.88;99175.38;4409644;32;20511;-75
2022/03/14 01:09:38;;;;;;;29.83;11.35;;;;;;;0.77;35.62;99184.69;4409661;32;19980;-75
2022/03/14 01:12:05;;;;;;;27.05;11.52;;;;;;;0.82;35.61;99179.66;4409655;32;20086;-75
2022/03/14 01:14:32;;;;;;;30.58;12.50;;;;;;;0.56;36.23;99184.38;4409147;32;20170;-75
2022/03/14 01:16:59;;;;;;;24.92;11.68;;;;;;;0.67;35.76;99172.69;4409496;32;20158;-75
2022/03/14 01:19:26;;;;;;;;;;;;;;;0.75;35.42;99172.78;4409754;32;20094;-75
2022/03/14 01:21:53;;;;;;;27.70;11.07;;;;;;;0.80;35.24;99169.47;4407851;32;20027;-75
2022/03/14 01:24:20;;;;;;;26.45;11.82;;;;;;;1.45;34.28;99163.50;4409490;32;20428;-75
2022/03/14 01:26:47;;;;;;;32.45;11.93;;;;;;;0.65;35.65;99170.97;4409358;32;20112;-75
2022/03/14 01:29:15;;;;;;;;;;;;;;;0.51;36.27;99165.66;4396568;32;20104;-75
2022/03/14 01:31:42;;;;;;;25.52;9.52;;;;;;;0.34;36.75;99164.56;4411273;32;20045;-75
2022/03/14 01:34:09;;;;;;;21.92;9.40;;;;;;;0.20;36.18;99170.25;4411342;32;20095;-75
2022/03/14 01:36:36;;;;;;;23.87;10.25;;;;;;;0.48;36.09;99175.75;4410949;32;20408;-75
2022/03/14 01:39:04;;;;;;;;;;;;;;;0.37;36.62;99175.59;4411385;32;20089;-75
2022/03/14 01:41:31;;;;;;;26.73;10.00;;;;;;;-0.06;37.20;99167.28;4411101;32;19978;-75
2022/03/14 01:43:59;;;;;;;;;;;;;;;0.21;37.21;99169.44;4411504;32;20133;-75
2022/03/14 01:46:26;;;;;;;21.58;9.82;;;;;;;0.54;36.60;99176.72;4411343;32;20218;-75
2022/03/14 01:48:54;;;;;;;24.15;10.40;;;;;;;-0.83;38.88;99169.19;4410758;32;20082;-75
2022/03/14 01:51:22;;;;;;;25.08;11.02;;;;;;;-0.26;39.28;99160.13;4411058;32;20494;-75
2022/03/14 01:53:49;;;;;;;28.00;11.65;;;;;;;-0.19;38.77;99160.28;4411191;32;20142;-76
2022/03/14 01:56:16;;;;;;;25.40;10.88;;;;;;;0.16;38.19;99170.19;4410749;32;20098;-75
2022/03/14 01:58:46;;;;;;;23.45;10.93;;;;;;;-0.09;38.28;99172.31;4410997;32;20168;-75
2022/03/14 02:01:13;;;;;;;25.15;11.05;;;;;;;-0.29;39.36;99163.47;4410912;32;20468;-75
2022/03/14 02:03:41;;;;;;;24.67;10.93;;;;;;;0.17;38.77;99171.88;4410570;32;20467;-75
2022/03/14 02:06:08;;;;;;;24.17;10.02;;;;;;;-0.26;38.87;99167.75;4411080;32;20094;-75
2022/03/14 02:08:35;;;;;;;26.55;10.30;;;;;;;-1.07;40.12;99173.72;4411038;32;20096;-75
2022/03/14 02:11:02;;;;;;;23.83;9.80;;;;;;;-0.90;40.15;99173.28;4410541;32;20154;-75
2022/03/14 02:13:29;;;;;;;27.25;11.23;;;;;;;-1.33;41.52;99171.50;4409495;32;20097;-76
2022/03/14 02:15:56;;;;;;;;;;;;;;;-0.57;40.23;99184.06;4411250;32;20149;-75
2022/03/14 02:18:23;;;;;;;25.83;10.18;;;;;;;-0.39;38.72;99179.34;4410766;32;20389;-75
2022/03/14 02:20:49;;;;;;;;;;;;;;;-0.48;38.26;99184.25;4409708;32;20149;-75
2022/03/14 02:23:16;;;;;;;27.17;10.35;;;;;;;-1.55;41.38;99187.88;4410969;32;19977;-75
2022/03/14 02:25:48;;;;;;;23.33;9.45;;;;;;;-0.43;38.83;99192.78;4410709;32;20111;-75
2022/03/14 02:28:15;;;;;;;22.42;10.00;;;;;;;-0.23;38.69;99191.47;4410815;32;20085;-75
2022/03/14 02:30:42;;;;;;;23.50;10.32;;;;;;;-0.11;38.58;99190.84;4410299;32;20104;-76
2022/03/14 02:33:10;;;;;;;23.60;10.02;;;;;;;0.04;38.28;99195.34;4410899;32;20098;-75
2022/03/14 02:35:39;;;;;;;24.10;10.52;;;;;;;-0.33;38.67;99200.59;4410849;32;20133;-75
2022/03/14 02:38:09;;;;;;;24.33;10.30;;;;;;;-0.38;38.68;99192.06;4410533;32;20102;-75
2022/03/14 02:40:40;;;;;;;28.95;10.52;;;;;;;-0.26;39.09;99188.03;4410264;32;20104;-75
2022/03/14 02:43:07;;;;;;;24.77;10.40;;;;;;;0.12;38.65;99193.81;4410827;32;20437;-75
2022/03/14 02:45:34;;;;;;;;;;;;;;;-0.24;38.87;99192.31;4410745;32;20497;-76
2022/03/14 02:48:01;;;;;;;30.40;10.60;;;;;;;-0.45;39.43;99191.91;4410895;32;19981;-75
2022/03/14 02:50:29;;;;;;;;;;;;;;;-0.81;40.25;99194.56;4410839;32;20462;-75
2022/03/14 02:52:56;;;;;;;27.65;10.98;;;;;;;-0.68;40.78;99192.31;4410312;32;20054;-75
2022/03/14 02:55:24;;;;;;;25.05;9.77;;;;;;;-0.63;40.61;99192.41;4410699;32;20153;-75
2022/03/14 02:57:51;;;;;;;22.02;9.57;;;;;;;-0.35;38.69;99202.25;4410662;32;20502;-75
2022/03/14 03:00:17;;;;;;;;;;;;;;;-0.28;38.51;99198.16;4410490;32;20104;-75
2022/03/14 03:02:44;;;;;;;24.12;9.55;;;;;;;-0.15;37.92;99196.69;4410757;32;19973;-75
2022/03/14 03:05:12;;;;;;;23.95;9.75;;;;;;;-1.24;40.25;99199.56;4410870;32;20082;-75
2022/03/14 03:07:39;;;;;;;24.42;10.38;;;;;;;-1.27;41.09;99196.13;4410354;32;20129;-75
2022/03/14 03:10:07;;;;;;;23.73;10.48;;;;;;;-1.40;41.56;99202.53;4410356;32;20459;-75
2022/03/14 03:12:35;;;;;;;24.65;10.05;;;;;;;-1.38;41.03;99202.56;4410347;32;20436;-75
2022/03/14 03:15:03;;;;;;;25.05;10.38;;;;;;;-1.33;41.23;99203.56;4410691;32;20444;-75
2022/03/14 03:17:30;;;;;;;24.23;9.40;;;;;;;-1.48;42.24;99197.34;4410582;32;20180;-75
2022/03/14 03:19:57;;;;;;;;;;;;;;;-1.45;41.21;99199.06;4410492;32;20097;-75
2022/03/14 03:22:27;;;;;;;23.90;9.57;;;;;;;-1.86;42.46;99203.97;4410258;32;19970;-76
2022/03/14 03:24:53;;;;;;;23.70;10.30;;;;;;;-1.80;42.48;99198.25;4410521;32;20146;-75
2022/03/14 03:27:20;;;;;;;;;;;;;;;-1.61;42.46;99202.03;4410471;32;20087;-75
2022/03/14 03:29:47;;;;;;;29.10;10.80;;;;;;;-0.71;41.10;99204.94;4410299;32;20032;-75
2022/03/14 03:32:14;;;;;;;33.63;11.80;;;;;;;-0.36;40.41;99208.16;4410445;32;20394;-75
2022/03/14 03:34:41;;;;;;;30.77;11.63;;;;;;;0.18;40.40;99209.97;4409003;32;20210;-75
2022/03/14 03:37:08;;;;;;;;;;;;;;;0.08;40.12;99209.78;4410799;32;20564;-75
2022/03/14 03:39:35;;;;;;;30.08;11.80;;;;;;;0.73;39.07;99220.16;4410398;32;20244;-75
2022/03/14 03:42:02;;;;;;;31.75;11.50;;;;;;;0.80;38.78;99220.28;4409811;32;20149;-75
2022/03/14 03:44:29;;;;;;;26.30;12.75;;;;;;;0.63;39.34;99216.63;4409212;32;20120;-75
2022/03/14 03:46:56;;;;;;;29.65;12.27;;;;;;;0.98;38.57;99217.16;4410377;32;20160;-76
2022/03/14 03:49:23;;;;;;;;;;;;;;;0.09;40.15;99219.09;4396493;32;20116;-75
2022/03/14 03:51:50;;;;;;;20.17;8.90;;;;;;;0.17;40.34;99226.03;4409191;32;20021;-75
2022/03/14 03:54:17;;;;;;;;;;;;;;;0.33;40.44;99218.69;4410634;32;20488;-75
2022/03/14 03:56:44;;;;;;;28.83;12.57;;;;;;;0.08;40.55;99215.72;4410009;32;20388;-75
2022/03/14 03:59:11;;;;;;;29.67;12.18;;;;;;;0.26;40.44;99217.72;4410230;32;20095;-75
2022/03/14 04:01:37;;;;;;;;;;;;;;;0.08;40.77;99214.88;4410265;32;20102;-75
2022/03/14 04:04:05;;;;;;;28.73;13.77;;;;;;;0.63;39.64;99223.37;4410531;32;20039;-76
2022/03/14 04:06:32;;;;;;;27.80;12.52;;;;;;;0.45;40.07;99218.91;4410194;32;20120;-75
2022/03/14 04:09:00;;;;;;;;;;;;;;;0.40;40.06;99221.34;4410170;32;20090;-75
2022/03/14 04:11:27;;;;;;;29.55;13.20;;;;;;;0.58;40.14;99225.88;4408884;32;19981;-76
2022/03/14 04:13:56;;;;;;;;;;;;;;;0.34;40.51;99225.47;4410517;32;20449;-75
2022/03/14 04:16:24;;;;;;;31.25;12.55;;;;;;;0.37;40.40;99225.53;4409891;32;19977;-75
2022/03/14 04:18:53;;;;;;;30.02;12.57;;;;;;;0.63;39.74;99226.78;4410013;32;20105;-75
2022/03/14 04:21:20;;;;;;;27.87;12.27;;;;;;;0.08;41.31;99225.00;4409689;32;20423;-75
2022/03/14 04:23:48;;;;;;;32.05;14.02;;;;;;;0.02;41.51;99230.84;4409863;32;20145;-75
2022/03/14 04:26:15;;;;;;;37.17;13.70;;;;;;;0.16;40.99;99231.94;4410072;32;20459;-76
2022/03/14 04:28:42;;;;;;;29.52;11.27;;;;;;;0.29;41.13;99240.63;4409982;32;20130;-76
2022/03/14 04:31:09;;;;;;;;;;;;;;;0.61;40.31;99237.75;4409773;32;20141;-75
2022/03/14 04:33:37;;;;;;;29.10;12.87;;;;;;;0.45;40.81;99239.22;4410181;32;19982;-75
2022/03/14 04:36:04;;;;;;;24.20;9.88;;;;;;;0.41;40.70;99243.34;4409982;32;20657;-75
2022/03/14 04:38:31;;;;;;;37.85;15.27;;;;;;;0.31;40.77;99236.41;4409521;32;20169;-75
2022/03/14 04:40:58;;;;;;;;;;;;;;;-0.09;41.55;99242.50;4410086;32;20133;-75
2022/03/14 04:43:26;;;;;;;30.08;12.30;;;;;;;0.15;41.66;99240.38;4410106;32;19989;-75
2022/03/14 04:45:53;;;;;;;25.15;10.00;;;;;;;0.33;41.24;99242.41;4409499;32;20157;-75
2022/03/14 04:48:20;;;;;;;31.83;14.27;;;;;;;0.31;41.28;99248.25;4408687;32;20074;-75
2022/03/14 04:50:47;;;;;;;36.35;14.52;;;;;;;0.48;40.86;99246.87;4409257;32;20474;-75
2022/03/14 04:53:14;;;;;;;32.60;14.68;;;;;;;0.53;40.85;99250.31;4409999;32;20133;-75
2022/03/14 04:55:42;;;;;;;;;;;;;;;0.75;39.89;99254.94;4410003;32;20105;-75
2022/03/14 04:58:14;;;;;;;36.65;14.77;;;;;;;0.32;40.92;99247.41;4409448;32;20102;-75
2022/03/14 05:00:44;;;;;;;30.67;13.23;;;;;;;0.58;40.46;99252.13;4409538;32;20106;-76
2022/03/14 05:03:11;;;;;;;29.87;11.32;;;;;;;0.65;40.65;99250.53;4396073;32;20435;-75
2022/03/14 05:05:39;;;;;;;21.40;9.30;;;;;;;0.66;40.49;99254.78;4409469;32;20100;-75
2022/03/14 05:08:05;;;;;;;;;;;;;;;0.82;40.12;99256.72;4409951;32;20134;-76
2022/03/14 05:10:33;;;;;;;28.87;11.02;;;;;;;0.66;40.59;99254.78;4409389;32;20033;-75
2022/03/14 05:13:01;;;;;;;27.87;12.05;;;;;;;0.71;40.40;99259.94;4408033;32;20192;-75
2022/03/14 05:15:29;;;;;;;26.58;12.30;;;;;;;0.78;39.98;99270.22;4409543;32;20455;-75
2022/03/14 05:18:01;;;;;;;30.25;12.37;;;;;;;0.77;40.16;99276.13;4409539;32;20562;-75
2022/03/14 05:20:28;;;;;;;31.75;13.57;;;;;;;0.93;39.55;99281.44;4408972;32;20110;-75
2022/03/14 05:22:55;;;;;;;34.95;14.52;;;;;;;0.62;40.11;99278.41;4409323;32;20108;-75
2022/03/14 05:25:23;;;;;;;33.67;14.93;;;;;;;1.01;39.38;99283.28;4408292;32;20161;-75
2022/03/14 05:27:52;;;;;;;28.60;14.20;;;;;;;0.77;39.75;99278.69;4408963;32;20531;-76
2022/03/14 05:30:19;;;;;;;31.45;14.15;;;;;;;1.32;38.73;99291.34;4408006;32;20174;-75
2022/03/14 05:32:46;;;;;;;28.60;12.70;;;;;;;1.12;39.10;99288.53;4409316;32;20133;-75
2022/03/14 05:35:15;;;;;;;;;;;;;;;1.27;38.53;99298.03;4409280;32;20100;-75
2022/03/14 05:37:46;;;;;;;31.02;12.98;;;;;;;1.31;38.45;99287.97;4409344;32;20019;-75
2022/03/14 05:40:15;;;;;;;33.22;14.32;;;;;;;1.59;38.16;99294.25;4407732;32;20105;-76
2022/03/14 05:42:45;;;;;;;30.00;13.15;;;;;;;2.44;36.30;99298.59;4409264;32;20094;-76
2022/03/14 05:45:15;;;;;;;27.00;12.52;;;;;;;2.64;35.04;99298.78;4409127;32;20078;-75
2022/03/14 05:47:43;;;;;;;27.08;12.52;;;;;;;3.96;32.86;99304.75;4408799;32;20161;-75
2022/03/14 05:50:10;;;;;;;27.05;11.50;;;;;;;4.70;31.27;99305.78;4408903;32;20161;-76
2022/03/14 05:52:37;;;;;;;27.42;12.43;;;;;;;4.05;31.91;99307.34;4409053;32;20098;-76
2022/03/14 05:55:07;;;;;;;25.90;11.43;;;;;;;3.91;31.69;99310.69;4408671;32;20102;-76
2022/03/14 05:57:35;;;;;;;29.05;13.35;;;;;;;3.93;33.21;99314.09;4407866;32;20101;-76
2022/03/14 06:00:06;;;;;;;27.87;12.60;;;;;;;4.45;32.22;99311.69;4408893;32;20196;-76
2022/03/14 06:02:34;;;;;;;26.02;12.70;;;;;;;7.30;28.31;99320.06;4408572;32;20090;-77
2022/03/14 06:05:02;;;;;;;28.62;13.05;;;;;;;8.44;26.54;99323.06;4408937;32;20096;-76
2022/03/14 06:07:29;;;;;;;30.02;13.55;;;;;;;8.39;25.56;99323.97;4408827;32;20086;-76
2022/03/14 06:09:56;;;;;;;29.00;13.20;;;;;;;9.79;24.60;99331.16;4408275;32;20098;-76
2022/03/14 06:12:28;;;;;;;30.70;13.73;;;;;;;9.47;24.58;99325.75;4408673;32;20089;-76
2022/03/14 06:14:58;;;;;;;29.83;12.90;;;;;;;11.28;23.19;99326.16;4409546;32;20142;-76
2022/03/14 06:17:30;;;;;;;26.37;14.00;;;;;;;11.11;23.36;99329.13;4409861;32;20545;-76
2022/03/14 06:19:57;;;;;;;27.40;13.20;;;;;;;10.93;23.56;99332.16;4410709;32;20170;-77
2022/03/14 06:22:24;;;;;;;28.67;14.23;;;;;;;10.52;24.21;99331.37;4410243;32;20097;-77
2022/03/14 06:24:51;;;;;;;32.90;16.62;;;;;;;11.62;23.27;99346.78;4409654;32;20149;-77
2022/03/14 06:27:20;;;;;;;30.95;15.25;;;;;;;11.74;22.91;99343.88;4410790;32;20149;-76
2022/03/14 06:29:52;;;;;;;28.20;14.80;;;;;;;10.88;23.91;99345.19;4410524;32;20098;-77
2022/03/14 06:32:19;;;;;;;27.92;14.30;;;;;;;11.75;23.02;99347.31;4410583;32;20098;-77
2022/03/14 06:34:46;;;;;;;28.70;15.05;;;;;;;11.41;23.39;99349.94;4410746;32;20087;-77
2022/03/14 06:37:13;;;;;;;28.20;14.90;;;;;;;10.69;24.36;99346.50;4410352;32;20120;-77
2022/03/14 06:39:40;;;;;;;26.62;13.82;;;;;;;11.78;23.35;99348.06;4410667;32;20110;-77
2022/03/14 06:42:09;;;;;;;29.20;15.93;;;;;;;10.82;24.29;99354.78;4410721;32;20090;-77
2022/03/14 06:44:39;;;;;;;31.20;14.90;;;;;;;11.76;23.14;99360.19;4410317;32;20100;-78
2022/03/14 06:47:09;;;;;;;26.92;14.48;;;;;;;13.43;21.77;99357.84;4410791;32;20138;-77
2022/03/14 06:49:37;;;;;;;25.73;13.52;;;;;;;12.81;22.09;99358.09;4410674;32;20117;-77
2022/03/14 06:52:05;;;;;;;28.73;14.38;;;;;;;12.89;22.86;99361.28;4409041;32;20169;-78
2022/03/14 06:54:32;;;;;;;28.75;14.48;;;;;;;13.32;21.39;99365.97;4410711;32;20078;-78
2022/03/14 06:56:59;;;;;;;27.90;15.10;;;;;;;13.89;21.27;99370.91;4410672;32;20097;-78
2022/03/14 06:59:26;;;;;;;27.15;15.45;;;;;;;15.18;19.30;99372.12;4410111;32;20110;-78
2022/03/14 07:01:53;;;;;;;27.02;15.52;;;;;;;16.49;18.25;99374.31;4410521;32;20120;-78
2022/03/14 07:04:20;;;;;;;29.67;14.38;;;;;;;16.46;18.00;99377.03;4410372;32;20100;-78
2022/03/14 07:06:47;;;;;;;25.67;13.82;;;;;;;16.54;17.91;99373.25;4410576;32;20074;-78
2022/03/14 07:09:15;;;;;;;21.52;11.80;;;;;;;16.92;17.05;99379.31;4410427;32;20097;-78
2022/03/14 07:11:41;;;;;;;23.45;11.52;;;;;;;14.84;18.06;99375.22;4410034;32;20158;-77
2022/03/14 07:14:08;;;;;;;25.10;12.35;;;;;;;13.03;19.61;99372.91;4410540;32;20444;-77
2022/03/14 07:16:35;;;;;;;20.88;11.52;;;;;;;11.01;21.52;99372.41;4410530;32;20458;-77
2022/03/14 07:19:02;;;;;;;22.67;12.52;;;;;;;9.50;23.03;99375.47;4410191;32;20090;-77
2022/03/14 07:21:29;;;;;;;24.87;12.63;;;;;;;9.18;24.02;99370.00;4410168;32;20106;-77
2022/03/14 07:23:56;;;;;;;22.80;11.10;;;;;;;10.16;23.27;99369.09;4410374;32;20481;-77
2022/03/14 07:26:24;;;;;;;19.40;10.25;;;;;;;9.57;23.32;99383.97;4409988;32;20103;-77
2022/03/14 07:28:51;;;;;;;21.98;11.23;;;;;;;8.59;24.43;99376.87;4410381;32;20157;-77
2022/03/14 07:31:19;;;;;;;20.73;11.15;;;;;;;9.39;23.97;99385.09;4410341;32;20105;-77
2022/03/14 07:33:47;;;;;;;24.37;10.73;;;;;;;9.42;23.57;99385.06;4410053;32;20570;-77
2022/03/14 07:36:15;;;;;;;19.30;9.68;;;;;;;10.19;23.09;99391.37;4410411;32;20130;-77
2022/03/14 07:38:42;;;;;;;26.10;9.90;;;;;;;9.79;23.12;99389.59;4410322;32;20173;-77
2022/03/14 07:41:09;;;;;;;21.77;10.38;;;;;;;9.14;23.53;99401.81;4396435;32;20464;-77
2022/03/14 07:43:37;;;;;;;20.37;10.25;;;;;;;9.72;23.23;99400.88;4410234;32;20104;-77
2022/03/14 07:46:04;;;;;;;21.90;9.73;;;;;;;9.41;23.96;99396.22;4410272;32;20130;-77
2022/03/14 07:48:31;;;;;;;20.60;10.20;;;;;;;9.84;23.55;99395.50;4409962;32;20396;-77
2022/03/14 07:50:58;;;;;;;;;;;;;;;9.42;23.76;99405.66;4410356;32;20114;-77
2022/03/14 07:53:25;;;;;;;22.60;10.20;;;;;;;8.11;24.61;99399.75;4409902;32;19995;-77
2022/03/14 07:55:52;;;;;;;21.08;9.68;;;;;;;9.31;23.97;99397.25;4410165;32;20157;-77
2022/03/14 07:58:19;;;;;;;22.45;10.98;;;;;;;9.30;23.90;99394.72;4410252;32;20109;-77
2022/03/14 08:00:46;;;;;;;20.40;10.82;;;;;;;9.18;23.82;99401.75;4409740;32;20445;-77
2022/03/14 08:03:15;;;;;;;21.55;10.63;;;;;;;8.45;24.63;99407.09;4410006;32;20105;-77
2022/03/14 08:05:45;;;;;;;20.58;10.02;;;;;;;8.52;24.99;99412.13;4409049;32;20440;-77
2022/03/14 08:08:15;;;;;;;19.98;9.73;;;;;;;8.35;25.01;99416.63;4409756;32;20102;-77
2022/03/14 08:10:42;;;;;;;23.05;11.07;;;;;;;8.51;25.08;99415.59;4410030;32;20129;-77
2022/03/14 08:13:09;;;;;;;;;;;;;;;8.73;24.76;99407.59;4410330;32;20097;-77
2022/03/14 08:15:36;;;;;;;21.50;10.05;;;;;;;9.06;24.82;99411.41;4404195;32;179555;-77
2022/03/14 08:18:05;;;;;;;24.20;10.68;;;;;;;9.07;25.12;99413.09;4410206;32;20086;-77
2022/03/14 08:20:33;;;;;;;19.10;9.60;;;;;;;8.91;24.58;99421.03;4408683;32;20414;-77
2022/03/14 08:23:02;;;;;;;21.40;9.32;;;;;;;8.83;24.41;99422.03;4409430;32;20090;-77
2022/03/14 08:25:30;;;;;;;19.45;9.85;;;;;;;8.82;24.62;99422.88;4410021;32;20094;-77
2022/03/14 08:27:58;;;;;;;21.70;10.95;;;;;;;8.69;24.77;99417.91;4410039;32;20174;-77
2022/03/14 08:30:25;;;;;;;21.37;9.63;;;;;;;8.94;24.29;99426.16;4409568;32;20142;-77
2022/03/14 08:32:54;;;;;;;21.42;9.95;;;;;;;9.12;24.41;99427.59;4409838;32;20164;-77
2022/03/14 08:35:21;;;;;;;18.62;9.52;;;;;;;8.77;24.44;99440.12;4409762;32;20098;-77
2022/03/14 08:37:51;;;;;;;19.42;9.38;;;;;;;9.93;23.50;99438.31;4409220;32;20456;-78
2022/03/14 08:40:22;;;;;;;21.83;9.88;;;;;;;9.94;23.76;99442.56;4409770;32;20121;-77
2022/03/14 08:42:51;;;;;;;17.62;9.13;;;;;;;9.71;23.50;99441.25;4408315;32;20198;-77
2022/03/14 08:45:19;;;;;;;19.30;9.07;;;;;;;10.67;22.70;99436.03;4409827;32;20128;-77
2022/03/14 08:47:47;;;;;;;23.12;10.38;;;;;;;9.99;23.01;99439.03;4409819;32;20108;-77
2022/03/14 08:50:14;;;;;;;19.58;9.50;;;;;;;9.44;23.61;99447.69;4408127;32;20101;-77
2022/03/14 08:52:43;;;;;;;20.12;9.20;;;;;;;9.48;23.48;99451.94;4409623;32;20124;-77
2022/03/14 08:55:10;;;;;;;18.25;8.98;;;;;;;9.81;23.81;99455.69;4409804;32;20094;-77
2022/03/14 08:57:39;;;;;;;18.08;8.73;;;;;;;9.83;23.17;99448.78;4409370;32;20150;-77
2022/03/14 09:00:07;;;;;;;20.52;9.40;;;;;;;10.25;22.67;99438.59;4409537;32;20502;-77
2022/03/14 09:02:34;;;;;;;21.17;9.98;;;;;;;10.34;22.78;99455.62;4408349;32;20176;-78
2022/03/14 09:05:01;;;;;;;20.40;10.20;;;;;;;11.17;22.45;99450.41;4395577;32;20083;-77
2022/03/14 09:07:30;;;;;;;20.10;9.52;;;;;;;11.92;21.76;99446.03;4409616;32;20147;-77
2022/03/14 09:10:03;;;;;;;20.75;8.18;;;;;;;11.60;21.62;99433.88;4409386;32;20123;-77
2022/03/14 09:12:32;;;;;;;19.08;9.75;;;;;;;11.36;21.55;99440.47;4409068;32;20149;-77
2022/03/14 09:15:01;;;;;;;21.60;10.45;;;;;;;11.01;22.08;99436.97;4408382;32;20373;-78
2022/03/14 09:17:29;;;;;;;17.20;9.38;;;;;;;11.77;21.93;99444.63;4409118;32;20166;-77
2022/03/14 09:19:56;;;;;;;22.60;9.32;;;;;;;11.48;22.00;99449.66;4409318;32;20149;-77
2022/03/14 09:22:23;;;;;;;19.42;9.65;;;;;;;11.52;21.67;99444.41;4409010;32;20145;-77
2022/03/14 09:24:54;;;;;;;17.42;8.27;;;;;;;12.27;21.21;99452.84;4408971;32;20392;-77
2022/03/14 09:27:24;;;;;;;22.05;10.18;;;;;;;12.26;20.70;99443.38;4409322;32;20170;-77
2022/03/14 09:29:51;;;;;;;18.37;8.73;;;;;;;12.13;21.18;99439.44;4409076;32;20159;-77
2022/03/14 09:32:19;;;;;;;18.27;8.32;;;;;;;12.68;20.50;99450.84;4407664;32;20107;-77
2022/03/14 09:34:45;;;;;;;17.70;8.30;;;;;;;11.99;21.30;99439.78;4408038;32;20154;-77
2022/03/14 09:37:12;;;;;;;18.77;8.45;;;;;;;11.21;21.66;99439.13;4395536;32;20157;-78
2022/03/14 09:39:39;;;;;;;17.70;8.48;;;;;;;11.42;21.75;99439.50;4408640;32;20108;-78
2022/03/14 09:42:07;;;;;;;;;;;;;;;11.80;21.50;99436.84;4409462;32;20094;-77
2022/03/14 09:44:34;;;;;;;18.10;8.93;;;;;;;11.94;21.65;99435.66;4409143;32;19974;-77
2022/03/14 09:47:02;;;;;;;13.95;7.85;;;;;;;11.87;21.76;99440.97;4408757;32;20107;-77
2022/03/14 09:49:30;;;;;;;17.00;8.15;;;;;;;12.16;21.38;99429.00;4409320;32;20109;-77
2022/03/14 09:51:58;;;;;;;17.23;8.57;;;;;;;12.14;21.86;99428.19;4410814;32;20494;-77
2022/03/14 09:54:25;;;;;;;17.35;8.13;;;;;;;11.21;22.58;99436.53;4409591;32;20104;-77
2022/03/14 09:56:59;;;;;;;16.37;8.20;;;;;;;10.91;22.81;99430.31;4398044;32;20102;-77
2022/03/14 09:59:26;;;;;;;18.95;8.52;;;;;;;12.06;22.95;99425.81;4409800;32;20106;-77
2022/03/14 10:01:53;;;;;;;16.00;7.87;;;;;;;12.40;22.07;99433.50;4410690;32;20461;-77
2022/03/14 10:04:20;;;;;;;15.20;7.62;;;;;;;13.35;21.86;99433.28;4409737;32;20074;-77
2022/03/14 10:06:49;;;;;;;17.62;7.70;;;;;;;13.55;21.48;99433.47;4410599;32;20160;-77
2022/03/14 10:09:16;;;;;;;16.40;8.50;;;;;;;13.44;21.88;99442.50;4410832;32;20164;-77
2022/03/14 10:11:44;;;;;;;16.37;9.05;;;;;;;13.45;21.58;99439.00;4410701;32;20082;-78
2022/03/14 10:14:17;;;;;;;18.08;8.00;;;;;;;13.57;20.90;99446.38;4410529;32;20094;-77
2022/03/14 10:16:47;;;;;;;18.62;9.13;;;;;;;13.70;21.16;99452.00;4410796;32;20504;-78
2022/03/14 10:19:22;;;;;;;15.18;7.28;;;;;;;13.89;21.28;99453.94;4410792;32;20147;-78
2022/03/14 10:21:50;;;;;;;17.23;7.90;;;;;;;13.50;21.94;99448.31;4410264;32;20125;-77
2022/03/14 10:24:22;;;;;;;17.92;7.95;;;;;;;13.12;22.21;99449.50;4397367;32;20078;-77
2022/03/14 10:26:50;;;;;;;15.77;8.48;;;;;;;13.64;21.93;99452.22;4410863;32;20511;-78
2022/03/14 10:29:18;;;;;;;17.05;8.18;;;;;;;13.46;21.45;99456.25;4410325;32;20120;-77
2022/03/14 10:31:54;;;;;;;18.05;8.38;;;;;;;13.96;20.95;99464.97;4410641;32;20094;-77
2022/03/14 10:34:22;;;;;;;17.05;8.90;;;;;;;13.89;21.07;99471.25;4410840;32;20073;-78
2022/03/14 10:36:57;;;;;;;19.10;8.02;;;;;;;14.19;20.40;99465.03;4409349;32;20161;-77
2022/03/14 10:39:29;;;;;;;15.30;8.20;;;;;;;14.00;21.18;99469.16;4409638;32;20385;-77
2022/03/14 10:42:08;;;;;;;17.45;8.88;;;;;;;14.17;20.48;99464.25;4410202;32;20111;-77
2022/03/14 10:44:51;;;;;;;17.50;8.77;;;;;;;13.65;21.13;99465.16;4409771;32;20233;-78
2022/03/14 10:47:19;;;;;;;15.65;7.93;;;;;;;13.95;20.94;99463.28;4410655;32;20138;-77
2022/03/14 10:49:48;;;;;;;14.90;8.10;;;;;;;13.89;20.99;99476.44;4410127;32;20117;-78
2022/03/14 10:52:20;;;;;;;23.38;8.05;;;;;;;13.82;21.54;99473.22;4410504;32;20136;-78
2022/03/14 10:54:48;;;;;;;16.92;7.78;;;;;;;14.55;20.24;99471.59;4410757;32;20120;-78
2022/03/14 10:57:22;;;;;;;17.40;8.32;;;;;;;14.57;20.32;99467.19;4410380;32;20138;-78
2022/03/14 10:59:51;;;;;;;17.37;8.45;;;;;;;14.59;20.45;99466.25;4409268;32;20097;-78
2022/03/14 11:02:24;;;;;;;16.50;7.85;;;;;;;14.16;20.15;99467.75;4410563;32;20090;-77
2022/03/14 11:04:59;;;;;;;15.73;8.57;;;;;;;14.26;19.95;99470.88;4409116;32;20078;-77
2022/03/14 11:07:35;;;;;;;15.23;7.62;;;;;;;14.35;20.35;99469.66;4396764;32;20476;-78
2022/03/14 11:10:07;;;;;;;18.40;8.10;;;;;;;13.89;20.92;99464.31;4410088;32;20090;-78
2022/03/14 11:12:34;;;;;;;16.37;8.77;;;;;;;14.39;20.15;99463.47;4409362;32;20104;-78
2022/03/14 11:15:06;;;;;;;15.77;7.53;;;;;;;14.03;20.34;99460.41;4410482;32;20573;-77
2022/03/14 11:17:35;;;;;;;17.70;8.68;;;;;;;13.97;20.42;99458.88;4410126;32;20158;-78
2022/03/14 11:20:22;;;;;;;17.45;8.95;;;;;;;13.61;20.78;99458.38;4410087;32;20207;-77
2022/03/14 11:22:50;;;;;;;17.23;9.13;;;;;;;13.89;20.62;99458.28;4408993;32;20096;-77
2022/03/14 11:25:18;;;;;;;16.08;8.35;;;;;;;13.52;20.12;99469.88;4408956;32;20158;-78
2022/03/14 11:27:45;;;;;;;15.88;7.78;;;;;;;13.92;19.79;99465.97;4409247;32;20114;-77
2022/03/14 11:30:13;;;;;;;17.20;8.75;;;;;;;14.54;18.82;99460.34;4409053;32;20123;-77
2022/03/14 11:32:42;;;;;;;16.60;8.65;;;;;;;14.05;19.55;99466.41;4408750;32;20097;-77
2022/03/14 11:35:09;;;;;;;15.15;7.70;;;;;;;13.75;20.12;99458.75;4410373;32;20451;-77